Weather at Fangatau Airport

Public forecast

Using degrees Celsius for public forecast. Weather courtesy of forecast.io.

Closest aviation weather report (METAR) to Fangatau Airport

Closest report is Faa'a International Airport, 512.1 nm (948.4 km) WSW.

2022/11/30 16:30 (retrieved 21 minutes ago)

NTAA 301630Z VRB02KT 9999 FEW020 26/21 Q1012 NOSIG

Closest aviation forecast (TAF) to Fangatau Airport

Closest forecast is Faa'a International Airport, 512.1 nm (948.4 km) WSW.

2022/11/30 12:57 (retrieved 4 hours ago)

TAF NTAA 301100Z 3012/0118 VRB05KT 9999 FEW020 SCT050 TEMPO 3020/0103 05013KT